NEODyS-2

Near Earth Objects - Dynamic Site
NEODyS ∴ Observatories ∴ Site 691 ∴ Obs & residuals
Contact »
691  ▹ 
OBSERVATIONS AND RESIDUALS

691-Steward Observatory, Kitt Peak-Spacewatch

Detections | Residuals | Detections & Residuals

[1-200] [201-400] [401-600] [601-800] [801-1000] [1001-1200] [1201-1400] [1401-1600] [1601-1800] [1801-2000] [2001-2200] [2201-2400] [2401-2600] [2601-2800] [2801-3000] [3001-3200] [3201-3400] [3401-3600] [3601-3800] [3801-4000] [4001-4200] [4201-4400] [4401-4600] [4601-4800] [4801-5000] [5001-5200] [5201-5400] [5401-5600] [5601-5800] [5801-6000] [6001-6200] [6201-6400] [6401-6600] [6601-6800] [6801-7000] [7001-7200] [7201-7400] [7401-7600] [7601-7800] [7801-8000] [8001-8200] [8201-8400] [8401-8600] [8601-8800] [8801-9000] [9001-9200] [9201-9400] [9401-9600] [9601-9800] [9801-10000] [10001-10200] [10201-10400] [10401-10600] [10601-10800] [10801-11000] [11001-11200] [11201-11400] [11401-11600] [11601-11800] [11801-12000] [12001-12200] [12201-12400] [12401-12600] [12601-12800] [12801-13000] [13001-13200] [13201-13400] [13401-13600] [13601-13800] [13801-14000] [14001-14200] [14201-14400] [14401-14600] [14601-14800] [14801-15000] [15001-15200] [15201-15400] [15401-15600] [15601-15800] [15801-16000] [16001-16200] [16201-16400] [16401-16600] [16601-16800] [16801-17000] [17001-17200] [17201-17400] [17401-17600] [17601-17800] [17801-18000] [18001-18200] [18201-18400] [18401-18600] [18601-18800] [18801-19000] [19001-19200] [19201-19400] [19401-19600] [19601-19800] [19801-20000] [20001-20200] [20201-20400] [20401-20600] [20601-20800] [20801-21000] [21001-21200] [21201-21400] [21401-21600] [21601-21800] [21801-22000] [22001-22200] [22201-22400] [22401-22600] [22601-22800] [22801-23000] [23001-23200] [23201-23400] [23401-23600] [23601-23800] [23801-24000] [24001-24200] [24201-24400] [24401-24600] [24601-24800] [24801-25000] [25001-25200] [25201-25400] [25401-25600] [25601-25800] [25801-26000] [26001-26200] [26201-26400] [26401-26600] [26601-26800] [26801-27000] [27001-27200] [27201-27400] [27401-27600] [27601-27800] [27801-28000] [28001-28200] [28201-28400] [28401-28600] [28601-28800] [28801-29000] [29001-29200] [29201-29400] [29401-29600] [29601-29800] [29801-30000] [30001-30200] [30201-30400] [30401-30600] [30601-30800] [30801-31000] [31001-31200] [31201-31400] [31401-31600] [31601-31800] [31801-32000] [32001-32200] [32201-32400] [32401-32600] [32601-32800] [32801-33000] [33001-33200] [33201-33400] [33401-33600] [33601-33800] [33801-34000] [34001-34200] [34201-34400] [34401-34600] [34601-34800] [34801-35000] [35001-35200] [35201-35400] [35401-35600] [35601-35800] [35801-36000] [36001-36200] [36201-36400] [36401-36600] [36601-36800] [36801-37000] [37001-37200] [37201-37400] [37401-37600] [37601-37800] [37801-38000] [38001-38200] [38201-38400] [38401-38600] [38601-38800] [38801-39000] [39001-39200] [39201-39400] [39401-39600] [39601-39800] [39801-40000] [40001-40200] [40201-40400] [40401-40600] [40601-40800] [40801-41000] [41001-41200] [41201-41400] [41401-41600] [41601-41800] [41801-42000] [42001-42200] [42201-42400] [42401-42600] [42601-42800] [42801-43000] [43001-43200] [43201-43400] [43401-43600] [43601-43800] [43801-44000] [44001-44200] [44201-44400] [44401-44600] [44601-44800] [44801-45000] [45001-45200] [45201-45400] [45401-45600] [45601-45800] [45801-46000] [46001-46200] [46201-46400] [46401-46600] [46601-46800] [46801-47000] [47001-47200] [47201-47400] [47401-47600] [47601-47800] [47801-48000] [48001-48200] [48201-48400] [48401-48600] [48601-48800] [48801-49000] [49001-49200] [49201-49400] [49401-49600] [49601-49800] [49801-50000] [50001-50200] [50201-50388]

Designation T Tech N Date Right Ascension Declination Apparent Magnitude Star Catalog Site code χ Used A Used M
yr-mo-day precision hr:min:sec precision rms F bias residual deg min sec precision rms F bias residual mag/col rms residual
2021AD6 O C K 2021-02-19.20525 1.000E-05 09:11:46.850 1.500E-01 0.500 F 0.249 -0.139 -04° 47' 49.70" 1.000E-01 0.500 F 0.032 0.297 20.7 R 0.70 -0.06 o 691 0.67 Yes Yes
2021CX5 O C K 2021-02-19.21304 1.000E-05 08:51:04.820 1.500E-01 0.500 F 0.100 -0.416 +02° 50' 47.10" 1.000E-01 0.500 F 0.151 0.193 21.3 R 0.70 0.68 o 691 0.92 Yes Yes
2019FJ O C K 2021-02-20.14689 1.000E-05 05:53:35.030 1.500E-01 0.500 F -0.001 -0.194 -26° 57' 12.30" 1.000E-01 0.500 F 0.047 0.033 19.8 R 0.70 0.25 o 691 0.40 Yes Yes
2019FJ O C K 2021-02-20.15506 1.000E-05 05:53:34.370 1.500E-01 0.500 F -0.001 0.249 -26° 56' 30.40" 1.000E-01 0.500 F 0.047 0.399 19.7 R 0.70 0.15 o 691 0.95 Yes Yes
2019FJ O C K 2021-02-20.16324 1.000E-05 05:53:33.670 1.500E-01 0.500 F -0.001 0.159 -26° 55' 49.20" 1.000E-01 0.500 F 0.047 -0.002 19.6 R 0.70 0.05 o 691 0.32 Yes Yes
2021AB8 O C K 2021-02-20.17502 1.000E-05 06:37:35.470 1.500E-01 0.500 F -0.146 -0.046 +13° 10' 34.60" 1.000E-01 0.500 F 0.153 0.077 20.9 R 0.70 0.45 o 691 0.18 Yes Yes
2015LK21 O C K 2021-02-20.18269 1.000E-05 07:06:46.950 1.500E-01 0.500 F -0.114 -0.132 -02° 10' 03.40" 1.000E-01 0.500 F 0.021 0.097 20.2 R 0.70 -0.93 o 691 0.34 Yes Yes
2021AB8 O C K 2021-02-20.19731 1.000E-05 06:37:34.670 1.500E-01 0.500 F -0.146 0.102 +13° 10' 09.90" 1.000E-01 0.500 F 0.153 0.374 o 691 0.80 Yes No
2015LK21 O C K 2021-02-20.20502 1.000E-05 07:06:46.780 1.500E-01 0.500 F -0.114 -0.104 -02° 09' 40.00" 1.000E-01 0.500 F 0.021 0.219 o 691 0.49 Yes No
2021AB8 O C K 2021-02-20.21968 1.000E-05 06:37:33.850 1.500E-01 0.500 F -0.146 -0.076 +13° 09' 44.30" 1.000E-01 0.500 F 0.153 -0.079 20.3 R 0.70 -0.15 o 691 0.23 Yes Yes
2015LK21 O C K 2021-02-20.22723 1.000E-05 07:06:46.630 1.500E-01 0.500 F -0.114 0.187 -02° 09' 17.30" 1.000E-01 0.500 F 0.021 -0.231 o 691 0.61 Yes No
2021CN3 O C K 2021-02-20.47303 1.000E-05 13:17:51.760 1.500E-01 0.500 F 0.215 0.085 -06° 41' 32.00" 1.000E-01 0.500 F 0.087 0.483 20.8 R 0.70 0.14 o 691 1.02 Yes Yes
2021CN3 O C K 2021-02-20.48658 1.000E-05 13:17:54.990 1.500E-01 0.500 F 0.215 0.113 -06° 43' 10.40" 1.000E-01 0.500 F 0.087 0.135 20.7 R 0.70 0.04 o 691 0.36 Yes Yes
2021CN3 O C K 2021-02-20.50014 1.000E-05 13:17:58.270 1.500E-01 0.500 F 0.215 0.468 -06° 44' 48.50" 1.000E-01 0.500 F 0.087 0.096 20.8 R 0.70 0.14 o 691 0.99 Yes Yes
2017TA4 O C K 2021-02-20.51433 1.000E-05 14:33:38.110 1.500E-01 0.500 F 0.321 -0.027 -09° 08' 36.90" 1.000E-01 0.500 F 0.151 -0.089 21.7 R 0.70 0.49 o 691 0.19 Yes Yes
2017TA4 O C K 2021-02-20.52263 1.000E-05 14:33:39.350 1.500E-01 0.500 F 0.321 -0.031 -09° 08' 30.00" 1.000E-01 0.500 F 0.151 -0.212 21.3 R 0.70 0.09 o 691 0.44 Yes Yes
2017TA4 O C K 2021-02-20.53084 1.000E-05 14:33:40.580 1.500E-01 0.500 F 0.321 0.010 -09° 08' 23.00" 1.000E-01 0.500 F 0.151 -0.166 21.1 R 0.70 -0.11 o 691 0.34 Yes Yes
2021CV3 O C K 2021-02-21.12382 1.000E-05 08:31:58.400 1.500E-01 0.500 F 0.021 0.090 +02° 58' 02.90" 1.000E-01 0.500 F 0.183 -0.295 18.4 R 0.70 -0.58 o 691 0.63 Yes Yes
2015MB54 O C 2021-02-21.12860 1.000E-05 07:58:52.470 1.500E-01 0.500 F 0.010 -0.141 +17° 57' 26.60" 1.000E-01 0.500 F 0.253 -0.335 20.0 V 0.70 -0.47 o 691 0.73 Yes Yes
2021DU1 O C K 2021-02-21.13497 1.000E-05 08:23:17.200 1.500E-01 0.500 F -0.079 -0.052 +12° 49' 42.10" 1.000E-01 0.500 F 0.190 -0.222 20.2 R 0.70 0.44 o 691 0.46 Yes Yes
2021CV3 O C K 2021-02-21.14730 1.000E-05 08:32:05.100 1.500E-01 0.500 F 0.021 0.064 +02° 54' 45.80" 1.000E-01 0.500 F 0.183 -0.185 18.8 R 0.70 -0.19 o 691 0.40 Yes Yes
2015MB54 O C 2021-02-21.15542 1.000E-05 07:58:49.340 1.500E-01 0.500 F 0.010 -0.103 +17° 58' 21.10" 1.000E-01 0.500 F 0.253 -0.058 20.3 V 0.70 -0.17 o 691 0.24 Yes Yes
2021DU1 O C K 2021-02-21.15844 1.000E-05 08:22:55.200 1.500E-01 0.500 F -0.079 0.041 +12° 45' 15.60" 1.000E-01 0.500 F 0.190 -0.254 o 691 0.52 Yes No
2021CV3 O C K 2021-02-21.17077 1.000E-05 08:32:11.680 1.500E-01 0.500 F 0.021 -0.444 +02° 51' 29.30" 1.000E-01 0.500 F 0.183 0.164 18.5 R 0.70 -0.49 o 691 0.98 Yes Yes
2015MB54 O C 2021-02-21.18056 1.000E-05 07:58:46.350 1.500E-01 0.500 F 0.010 -0.032 +17° 59' 11.10" 1.000E-01 0.500 F 0.253 -0.375 20.4 V 0.70 -0.07 o 691 0.76 Yes Yes
2021DU1 O C K 2021-02-21.18191 1.000E-05 08:22:33.110 1.500E-01 0.500 F -0.066 -0.399 +12° 40' 48.70" 1.000E-01 0.500 F 0.138 -0.027 20.0 R 0.70 0.23 o 691 0.81 Yes Yes
2007FK3 O C 2021-02-21.45582 1.000E-05 12:25:49.450 1.500E-01 0.500 F 0.208 -0.488 +04° 53' 56.50" 1.000E-01 0.500 F 0.276 0.241 19.5 V 0.70 0.05 o 691 1.09 Yes Yes
2007FK3 O C 2021-02-21.46361 1.000E-05 12:25:49.330 1.500E-01 0.500 F 0.208 -0.478 +04° 54' 03.70" 1.000E-01 0.500 F 0.276 -0.120 19.5 V 0.70 0.05 o 691 0.99 Yes Yes
2007FK3 O C 2021-02-21.46880 1.000E-05 12:25:49.280 1.500E-01 0.500 F 0.208 -0.030 +04° 54' 09.10" 1.000E-01 0.500 F 0.276 0.244 19.4 V 0.70 -0.05 o 691 0.49 Yes Yes
2015NJ24 O C K 2021-02-21.50656 1.000E-05 17:27:37.320 1.500E-01 0.500 F 0.086 -0.653 -07° 52' 03.30" 1.000E-01 0.500 F 0.226 0.567 o 691 1.75 Yes No
2015NJ24 O C K 2021-02-21.52213 1.000E-05 17:27:38.420 1.500E-01 0.500 F 0.086 -0.492 -07° 51' 54.30" 1.000E-01 0.500 F 0.226 -1.090 o 691 2.44 Yes No
2021CF6 O C K 2021-02-22.13484 1.000E-05 05:40:56.520 1.500E-01 0.500 F -0.250 0.161 -07° 07' 29.50" 1.000E-01 0.500 F 0.097 -0.114 20.5 R 0.70 0.24 o 691 0.40 Yes Yes
2021CF6 O C K 2021-02-22.15883 1.000E-05 05:40:52.540 1.500E-01 0.500 F -0.250 -0.115 -07° 07' 19.00" 1.000E-01 0.500 F 0.097 -0.205 o 691 0.47 Yes No
2021CF6 O C K 2021-02-22.17918 1.000E-05 05:40:49.220 1.500E-01 0.500 F -0.250 0.236 -07° 07' 09.40" 1.000E-01 0.500 F 0.097 0.173 20.9 R 0.70 0.64 o 691 0.59 Yes Yes
2010JM151 O C K 2021-02-22.43761 1.000E-05 11:08:36.480 1.500E-01 0.500 F 0.242 -0.094 -18° 05' 20.50" 1.000E-01 0.500 F -0.265 0.273 o 691 0.60 Yes No
2011BX18 O C 2021-02-22.43761 1.000E-05 11:07:22.450 1.500E-01 0.500 F 0.268 -0.081 -18° 48' 17.10" 1.000E-01 0.500 F -0.277 0.032 18.9 V 0.70 0.52 o 691 0.18 Yes Yes
2011BX18 O C 2021-02-22.46461 1.000E-05 11:07:20.050 1.500E-01 0.500 F 0.268 -0.079 -18° 49' 30.30" 1.000E-01 0.500 F -0.277 0.802 18.7 V 0.70 0.32 o 691 1.62 Yes Yes
2010JM151 O C K 2021-02-22.47360 1.000E-05 11:08:32.750 1.500E-01 0.500 F 0.242 0.052 -18° 05' 44.90" 1.000E-01 0.500 F -0.265 0.272 o 691 0.57 Yes No
2011BX18 O C 2021-02-22.48934 1.000E-05 11:07:17.900 1.500E-01 0.500 F 0.268 0.401 -18° 50' 38.80" 1.000E-01 0.500 F -0.277 0.015 18.3 V 0.70 -0.08 o 691 0.81 Yes Yes
2007FK3 O C 2021-02-22.49705 1.000E-05 12:25:37.950 1.500E-01 0.500 F 0.208 -0.415 +05° 10' 51.80" 1.000E-01 0.500 F 0.276 -0.030 19.7 V 0.70 0.26 o 691 0.83 Yes Yes
2003EH16 O C K 2021-02-22.50139 1.000E-05 13:21:53.870 1.500E-01 0.500 F 0.395 0.077 +01° 18' 39.90" 1.000E-01 0.500 F 0.117 0.017 o 691 0.16 Yes No
2007FK3 O C 2021-02-22.51150 1.000E-05 12:25:37.710 1.500E-01 0.500 F 0.208 -0.211 +05° 11' 05.80" 1.000E-01 0.500 F 0.276 -0.083 19.6 V 0.70 0.16 o 691 0.45 Yes Yes
2003EH16 O C K 2021-02-22.51359 1.000E-05 13:21:52.370 1.500E-01 0.500 F 0.395 -1.469 +01° 18' 23.40" 1.000E-01 0.500 F 0.117 -0.079 20.4 R 0.70 -0.16 o 691 2.96 Yes Yes
2007FK3 O C 2021-02-22.52370 1.000E-05 12:25:37.500 1.500E-01 0.500 F 0.208 -0.203 +05° 11' 17.70" 1.000E-01 0.500 F 0.276 -0.042 19.6 V 0.70 0.16 o 691 0.42 Yes Yes
2003EH16 O C K 2021-02-22.52578 1.000E-05 13:21:51.030 1.500E-01 0.500 F 0.395 -0.662 +01° 18' 06.90" 1.000E-01 0.500 F 0.117 -0.190 20.8 R 0.70 0.24 o 691 1.38 Yes Yes
2019FJ O C K 2021-02-23.09348 1.000E-05 05:50:13.270 1.500E-01 0.500 F 0.063 -0.049 -22° 49' 22.70" 1.000E-01 0.500 F -0.172 0.264 19.8 R 0.70 0.21 o 691 0.54 Yes Yes
2019FJ O C K 2021-02-23.10603 1.000E-05 05:50:12.430 1.500E-01 0.500 F 0.063 -0.148 -22° 48' 19.80" 1.000E-01 0.500 F -0.172 0.472 20.1 R 0.70 0.51 o 691 1.00 Yes Yes
2019FJ O C K 2021-02-23.11858 1.000E-05 05:50:11.600 1.500E-01 0.500 F 0.063 -0.109 -22° 47' 17.70" 1.000E-01 0.500 F -0.172 -0.150 19.7 R 0.70 0.11 o 691 0.37 Yes Yes
2021CF6 O C K 2021-02-23.13872 1.000E-05 05:38:44.860 1.500E-01 0.500 F -0.250 0.448 -06° 59' 42.00" 1.000E-01 0.500 F 0.097 0.220 20.2 R 0.70 0.03 o 691 1.01 Yes Yes
2021CF6 O C K 2021-02-23.15627 1.000E-05 05:38:41.700 1.500E-01 0.500 F -0.250 0.320 -06° 59' 32.90" 1.000E-01 0.500 F 0.097 0.307 20.4 R 0.70 0.23 o 691 0.90 Yes Yes
2021CF6 O C K 2021-02-23.17381 1.000E-05 05:38:38.580 1.500E-01 0.500 F -0.250 0.569 -06° 59' 23.50" 1.000E-01 0.500 F 0.097 0.529 20.6 R 0.70 0.43 o 691 1.57 Yes Yes
2015MB54 O C K 2021-02-23.19322 1.000E-05 07:55:52.810 1.500E-01 0.500 F -0.012 0.109 +19° 07' 13.40" 1.000E-01 0.500 F 0.289 -0.243 19.9 R 0.70 -0.14 o 691 0.54 Yes Yes
2015MB54 O C K 2021-02-23.20762 1.000E-05 07:55:51.060 1.500E-01 0.500 F -0.012 -0.117 +19° 07' 44.00" 1.000E-01 0.500 F 0.289 -0.177 20.1 R 0.70 0.06 o 691 0.43 Yes Yes
2015MB54 O C K 2021-02-23.22201 1.000E-05 07:55:49.320 1.500E-01 0.500 F -0.012 -0.184 +19° 08' 14.20" 1.000E-01 0.500 F 0.289 -0.288 o 691 0.69 Yes No
2021DJ2 O C K 2021-02-23.47427 1.000E-05 12:06:42.410 1.500E-01 0.500 F 0.224 -0.364 +10° 28' 05.00" 1.000E-01 0.500 F 0.215 0.674 20.9 R 0.70 0.21 o 691 1.56 Yes Yes
2021DJ2 O C K 2021-02-23.48468 1.000E-05 12:06:40.400 1.500E-01 0.500 F 0.224 0.292 +10° 27' 08.40" 1.000E-01 0.500 F 0.215 0.363 21.3 R 0.70 0.61 o 691 0.94 Yes Yes
2021DJ2 O C K 2021-02-23.49508 1.000E-05 12:06:38.310 1.500E-01 0.500 F 0.224 -0.388 +10° 26' 12.10" 1.000E-01 0.500 F 0.215 0.354 21.1 R 0.70 0.41 o 691 1.07 Yes Yes
1995FJ O C K 2021-02-23.50789 1.000E-05 14:17:48.870 1.500E-01 0.500 F 0.325 -0.459 +03° 03' 43.40" 1.000E-01 0.500 F 0.283 -0.092 21.5 R 0.70 0.80 o 691 0.94 Yes Yes
2001SQ3 O C K 2021-02-23.51102 1.000E-05 14:42:53.280 1.500E-01 0.500 F 0.134 0.683 +19° 25' 35.30" 1.000E-01 0.500 F 0.330 -0.701 20.7 R 0.70 0.62 o 691 1.99 Yes Yes
1995FJ O C K 2021-02-23.51496 1.000E-05 14:17:48.800 1.500E-01 0.500 F 0.325 -0.264 +03° 03' 34.10" 1.000E-01 0.500 F 0.283 0.344 21.4 R 0.70 0.70 o 691 0.87 Yes Yes
2001SQ3 O C K 2021-02-23.51809 1.000E-05 14:42:54.010 1.500E-01 0.500 F 0.111 -0.005 +19° 25' 13.70" 1.000E-01 0.500 F 0.258 -0.015 20.5 R 0.70 0.43 o 691 0.03 Yes Yes
1995FJ O C K 2021-02-23.52203 1.000E-05 14:17:48.720 1.500E-01 0.500 F 0.325 -0.221 +03° 03' 24.40" 1.000E-01 0.500 F 0.283 0.384 21.0 R 0.70 0.30 o 691 0.89 Yes Yes
2001SQ3 O C K 2021-02-23.52519 1.000E-05 14:42:54.780 1.500E-01 0.500 F 0.111 -0.208 +19° 24' 51.10" 1.000E-01 0.500 F 0.258 -0.271 20.9 R 0.70 0.83 o 691 0.70 Yes Yes
2002EC3 O C 2021-02-23.53006 1.000E-05 13:33:29.100 1.500E-01 0.500 F 0.267 -0.952 +04° 55' 53.00" 1.000E-01 0.500 F 0.085 -0.076 20.4 V 0.70 0.18 o 691 1.93 Yes Yes
2002EC3 O C 2021-02-23.53517 1.000E-05 13:33:29.690 1.500E-01 0.500 F 0.267 -0.439 +04° 55' 40.30" 1.000E-01 0.500 F 0.085 -0.217 20.5 V 0.70 0.28 o 691 0.99 Yes Yes
2002EC3 O C 2021-02-23.54028 1.000E-05 13:33:30.260 1.500E-01 0.500 F 0.267 -0.242 +04° 55' 27.80" 1.000E-01 0.500 F 0.085 -0.153 20.9 V 0.70 0.68 o 691 0.58 Yes Yes
2014QC433 O C K 2021-02-24.50767 1.000E-05 12:02:04.440 1.500E-01 0.500 F 0.200 -0.022 +01° 26' 11.30" 1.000E-01 0.500 F 0.308 0.321 o 691 0.66 Yes No
2014QC433 O C K 2021-02-24.52377 1.000E-05 12:02:03.830 1.500E-01 0.500 F 0.200 -0.286 +01° 26' 23.00" 1.000E-01 0.500 F 0.308 -0.250 o 691 0.77 Yes No
2010BH2 O C K 2021-03-02.46333 1.000E-05 16:52:59.610 1.500E-01 0.500 F 0.048 -0.028 +15° 58' 37.70" 1.000E-01 0.500 F 0.257 0.142 22.3 R 0.70 0.83 o 691 0.31 Yes Yes
2010BH2 O C K 2021-03-02.47763 1.000E-05 16:53:01.160 1.500E-01 0.500 F 0.048 -0.384 +15° 58' 42.40" 1.000E-01 0.500 F 0.257 0.142 22.1 R 0.70 0.63 o 691 0.84 Yes Yes
2010BH2 O C K 2021-03-02.49194 1.000E-05 16:53:02.750 1.500E-01 0.500 F 0.048 -0.136 +15° 58' 47.00" 1.000E-01 0.500 F 0.257 0.054 22.4 R 0.70 0.93 o 691 0.31 Yes Yes
2001SQ3 O C K 2021-03-02.51060 1.000E-05 14:59:57.880 1.500E-01 0.500 F 0.060 0.307 +10° 54' 22.50" 1.000E-01 0.500 F 0.161 0.332 20.1 R 0.70 0.76 o 691 0.93 Yes Yes
2001SQ3 O C K 2021-03-02.51933 1.000E-05 14:59:59.210 1.500E-01 0.500 F 0.060 0.054 +10° 53' 29.20" 1.000E-01 0.500 F 0.161 0.076 19.8 R 0.70 0.46 o 691 0.19 Yes Yes
2001SQ3 O C K 2021-03-02.52808 1.000E-05 15:00:00.580 1.500E-01 0.500 F 0.060 0.306 +10° 52' 35.90" 1.000E-01 0.500 F 0.161 0.018 20.0 R 0.70 0.66 o 691 0.63 Yes Yes
2021CF6 O C K 2021-03-03.11589 1.000E-05 05:04:48.900 1.500E-01 0.500 F -0.272 -0.134 -04° 36' 31.60" 1.000E-01 0.500 F 0.063 0.040 19.6 R 0.70 0.39 o 691 0.28 Yes Yes
2019FJ O C K 2021-03-03.11908 1.000E-05 05:44:56.860 1.500E-01 0.500 F -0.042 0.247 -12° 07' 03.10" 1.000E-01 0.500 F 0.004 0.362 19.5 R 0.70 -0.26 o 691 0.88 Yes Yes
2021CF6 O C K 2021-03-03.12257 1.000E-05 05:04:45.040 1.500E-01 0.500 F -0.272 0.178 -04° 36' 16.50" 1.000E-01 0.500 F 0.063 0.101 19.6 R 0.70 0.39 o 691 0.41 Yes Yes
2019FJ O C K 2021-03-03.12576 1.000E-05 05:44:56.650 1.500E-01 0.500 F -0.042 -0.159 -12° 06' 33.00" 1.000E-01 0.500 F 0.004 0.007 20.0 R 0.70 0.24 o 691 0.32 Yes Yes
2021CF6 O C K 2021-03-03.12926 1.000E-05 05:04:41.170 1.500E-01 0.500 F -0.272 0.414 -04° 36' 01.30" 1.000E-01 0.500 F 0.063 0.186 19.4 R 0.70 0.19 o 691 0.92 Yes Yes
2019FJ O C K 2021-03-03.13245 1.000E-05 05:44:56.480 1.500E-01 0.500 F -0.042 0.019 -12° 06' 02.50" 1.000E-01 0.500 F 0.004 0.005 20.2 R 0.70 0.44 o 691 0.04 Yes Yes
2021CX5 O C 2021-03-03.13799 1.000E-05 08:49:28.470 1.500E-01 0.500 F 0.116 -0.122 -01° 42' 35.90" 1.000E-01 0.500 F 0.105 0.096 20.4 V 0.70 0.05 o 691 0.31 Yes Yes
2021DL O C K 2021-03-03.14059 1.000E-05 08:33:03.350 1.500E-01 0.500 F 0.121 -0.147 +09° 21' 05.90" 1.000E-01 0.500 F 0.094 -0.038 18.3 R 0.70 -0.63 o 691 0.30 Yes Yes
2015NU13 O C K 2021-03-03.14453 1.000E-05 08:25:53.730 1.500E-01 0.500 F 0.087 -0.153 +21° 00' 28.20" 1.000E-01 0.500 F 0.289 -0.056 19.3 R 0.70 -0.45 o 691 0.33 Yes Yes
2021CX5 O C 2021-03-03.14866 1.000E-05 08:49:28.310 1.500E-01 0.500 F 0.116 -0.022 -01° 42' 56.70" 1.000E-01 0.500 F 0.105 0.137 20.0 V 0.70 -0.35 o 691 0.28 Yes Yes
2021DL O C K 2021-03-03.14984 1.000E-05 08:33:07.850 1.500E-01 0.500 F 0.156 0.139 +09° 18' 47.40" 1.000E-01 0.500 F 0.034 0.404 18.8 R 0.70 -0.12 o 691 0.87 Yes Yes
2015NU13 O C K 2021-03-03.15378 1.000E-05 08:25:54.120 1.500E-01 0.500 F 0.087 0.142 +21° 00' 29.40" 1.000E-01 0.500 F 0.289 0.244 19.7 R 0.70 -0.05 o 691 0.57 Yes Yes
2021CX5 O C 2021-03-03.15794 1.000E-05 08:49:28.150 1.500E-01 0.500 F 0.116 -0.087 -01° 43' 14.80" 1.000E-01 0.500 F 0.105 0.168 20.7 V 0.70 0.35 o 691 0.38 Yes Yes
2021DL O C K 2021-03-03.15912 1.000E-05 08:33:12.290 1.500E-01 0.500 F 0.156 -0.389 +09° 16' 27.80" 1.000E-01 0.500 F 0.034 0.381 18.4 R 0.70 -0.52 o 691 1.11 Yes Yes
2015NU13 O C K 2021-03-03.16305 1.000E-05 08:25:54.430 1.500E-01 0.500 F 0.087 -0.679 +21° 00' 30.50" 1.000E-01 0.500 F 0.289 0.459 19.2 R 0.70 -0.55 o 691 1.64 Yes Yes
2021CG3 O C 2021-03-03.17506 1.000E-05 08:43:10.360 1.500E-01 0.500 F 0.108 0.138 +20° 33' 00.80" 1.000E-01 0.500 F 0.276 -0.143 20.0 V 0.70 -0.21 o 691 0.40 Yes Yes
2021CG3 O C 2021-03-03.19018 1.000E-05 08:43:06.940 1.500E-01 0.500 F 0.108 -0.065 +20° 34' 04.70" 1.000E-01 0.500 F 0.276 -0.043 20.3 V 0.70 0.09 o 691 0.16 Yes Yes
2021CG3 O C 2021-03-03.20417 1.000E-05 08:43:03.730 1.500E-01 0.500 F 0.108 -0.798 +20° 35' 03.90" 1.000E-01 0.500 F 0.276 0.255 20.0 V 0.70 -0.21 o 691 1.69 Yes Yes
2021AD6 O C K 2021-03-03.21098 1.000E-05 08:56:43.740 1.500E-01 0.500 F 0.185 0.019 -03° 16' 45.20" 1.000E-01 0.500 F 0.055 0.360 20.3 R 0.70 -1.34 o 691 0.76 Yes Yes
2021AD6 O C K 2021-03-03.22446 1.000E-05 08:56:43.060 1.500E-01 0.500 F 0.185 0.292 -03° 16' 39.20" 1.000E-01 0.500 F 0.055 -0.068 21.6 R 0.70 -0.04 o 691 0.63 Yes Yes
2021AD6 O C K 2021-03-03.23796 1.000E-05 08:56:42.350 1.500E-01 0.500 F 0.185 0.132 -03° 16' 32.40" 1.000E-01 0.500 F 0.055 0.281 22.1 R 0.70 0.46 o 691 0.66 Yes Yes
Apophis O C 2021-03-03.25538 1.000E-05 09:39:13.050 1.500E-01 0.750 F 0.082 -0.319 -09° 46' 02.40" 1.000E-01 0.750 F 0.000 -0.006 15.7 V 0.70 0.21 o 691 0.43 Yes Yes
Apophis O C 2021-03-03.28885 1.000E-05 09:39:02.920 1.500E-01 0.750 F 0.082 -0.102 -09° 44' 32.50" 1.000E-01 0.750 F 0.000 0.038 15.7 V 0.70 0.21 o 691 0.15 Yes Yes
Apophis O C 2021-03-03.32069 1.000E-05 09:38:53.290 1.500E-01 0.750 F 0.082 -0.241 -09° 43' 06.50" 1.000E-01 0.750 F 0.000 0.028 15.6 V 0.70 0.11 o 691 0.32 Yes Yes
Apophis O C 2021-03-03.32237 1.000E-05 09:38:52.780 1.500E-01 0.750 F 0.082 -0.298 -09° 43' 01.80" 1.000E-01 0.750 F 0.000 0.175 15.6 V 0.70 0.11 o 691 0.46 Yes Yes
Apophis O C 2021-03-03.33075 1.000E-05 09:38:50.260 1.500E-01 0.750 F 0.082 -0.273 -09° 42' 39.20" 1.000E-01 0.750 F 0.000 0.048 15.6 V 0.70 0.11 o 691 0.37 Yes Yes
Apophis O C 2021-03-03.33908 1.000E-05 09:38:47.750 1.500E-01 0.750 F 0.090 -0.408 -09° 42' 16.80" 1.000E-01 0.750 F 0.006 -0.183 15.5 V 0.70 0.01 o 691 0.60 Yes Yes
Apophis O C 2021-03-03.38914 1.000E-05 09:38:32.870 1.500E-01 0.750 F 0.090 -0.243 -09° 39' 59.90" 1.000E-01 0.750 F 0.006 0.105 15.5 V 0.70 0.00 o 691 0.35 Yes Yes
Apophis O C 2021-03-03.40471 1.000E-05 09:38:28.300 1.500E-01 0.750 F 0.090 -0.233 -09° 39' 17.10" 1.000E-01 0.750 F 0.006 0.210 15.5 V 0.70 0.00 o 691 0.42 Yes Yes
Apophis O C 2021-03-03.41869 1.000E-05 09:38:24.230 1.500E-01 0.750 F 0.090 -0.159 -09° 38' 38.80" 1.000E-01 0.750 F 0.006 0.105 15.5 V 0.70 0.00 o 691 0.25 Yes Yes
2020UZ3 O C K 2021-03-03.46604 1.000E-05 15:29:48.370 1.500E-01 0.500 F 0.196 -0.166 +30° 28' 44.30" 1.000E-01 0.500 F 0.244 0.010 20.5 R 0.70 -0.03 o 691 0.33 Yes Yes
2020UZ3 O C K 2021-03-03.47592 1.000E-05 15:29:46.670 1.500E-01 0.500 F 0.196 -0.420 +30° 28' 37.10" 1.000E-01 0.500 F 0.244 0.024 20.7 R 0.70 0.17 o 691 0.85 Yes Yes
2020UZ3 O C K 2021-03-03.48581 1.000E-05 15:29:44.990 1.500E-01 0.500 F 0.196 -0.375 +30° 28' 29.80" 1.000E-01 0.500 F 0.244 -0.021 20.6 R 0.70 0.07 o 691 0.76 Yes Yes
Apophis O C 2021-03-04.15184 1.000E-05 09:35:10.270 1.500E-01 0.500 F 0.061 -0.148 -09° 05' 30.60" 1.000E-01 0.500 F 0.065 0.122 15.4 V 0.70 -0.11 o 691 0.38 Yes Yes
Apophis O C 2021-03-04.15666 1.000E-05 09:35:08.840 1.500E-01 0.500 F 0.061 -0.303 -09° 05' 17.50" 1.000E-01 0.500 F 0.065 0.227 15.4 V 0.70 -0.11 o 691 0.76 Yes Yes
Apophis O C 2021-03-04.16148 1.000E-05 09:35:07.420 1.500E-01 0.500 F 0.061 -0.274 -09° 05' 04.60" 1.000E-01 0.500 F 0.065 0.122 15.4 V 0.70 -0.11 o 691 0.60 Yes Yes
2020QZ3 O C K 2021-03-05.23608 1.000E-05 06:42:42.070 1.500E-01 0.500 F -0.103 0.292 +02° 08' 14.60" 1.000E-01 0.500 F 0.067 0.094 20.5 R 0.70 0.08 o 691 0.62 Yes Yes
2020QZ3 O C K 2021-03-05.24449 1.000E-05 06:42:45.220 1.500E-01 0.500 F -0.103 -0.482 +02° 08' 29.80" 1.000E-01 0.500 F 0.067 -0.483 o 691 1.38 Yes No
Apophis O C 2021-03-05.26522 1.000E-05 09:30:06.250 1.500E-01 0.612 F -0.005 -0.214 -08° 14' 10.20" 1.000E-01 0.612 F 0.047 0.160 15.9 V 0.70 0.36 o 691 0.44 Yes Yes
Apophis O C 2021-03-05.29208 1.000E-05 09:29:58.310 1.500E-01 0.612 F -0.005 -0.118 -08° 12' 54.80" 1.000E-01 0.612 F 0.047 0.140 16.5 V 0.70 0.96 o 691 0.30 Yes Yes
Apophis O C 2021-03-05.32046 1.000E-05 09:29:49.950 1.500E-01 0.612 F -0.005 -0.141 -08° 11' 34.80" 1.000E-01 0.612 F 0.047 0.125 15.6 V 0.70 0.06 o 691 0.31 Yes Yes
Apophis O C 2021-03-05.32494 1.000E-05 09:29:48.630 1.500E-01 0.612 F -0.005 -0.224 -08° 11' 22.20" 1.000E-01 0.612 F 0.047 0.064 15.5 V 0.70 -0.04 o 691 0.38 Yes Yes
Apophis O C 2021-03-05.32644 1.000E-05 09:29:48.200 1.500E-01 0.612 F -0.005 -0.080 -08° 11' 17.90" 1.000E-01 0.612 F 0.047 0.123 15.5 V 0.70 -0.04 o 691 0.24 Yes Yes
Apophis O C 2021-03-05.32793 1.000E-05 09:29:47.770 1.500E-01 0.612 F -0.005 0.017 -08° 11' 13.70" 1.000E-01 0.612 F 0.047 0.110 15.5 V 0.70 -0.04 o 691 0.18 Yes Yes
2020QY3 O C K 2021-03-05.45844 1.000E-05 14:09:02.190 1.500E-01 0.500 F 0.263 -0.346 +06° 54' 10.10" 1.000E-01 0.500 F 0.223 0.393 20.3 R 0.70 -0.23 o 691 1.22 Yes Yes
2020QY3 O C K 2021-03-05.47684 1.000E-05 14:09:01.910 1.500E-01 0.500 F 0.263 0.441 +06° 56' 40.20" 1.000E-01 0.500 F 0.223 -0.177 20.6 R 0.70 0.07 o 691 1.07 Yes Yes
2021CF6 O C K 2021-03-06.10611 1.000E-05 04:25:51.700 1.500E-01 0.500 F -0.330 0.460 -01° 38' 53.50" 1.000E-01 0.500 F 0.144 0.405 18.4 R 0.70 -0.38 o 691 1.26 Yes Yes
2021CF6 O C K 2021-03-06.11018 1.000E-05 04:25:46.260 1.500E-01 0.500 F -0.330 0.487 -01° 38' 31.00" 1.000E-01 0.500 F 0.144 -0.081 18.8 R 0.70 0.02 o 691 1.01 Yes Yes
2021CF6 O C K 2021-03-06.11425 1.000E-05 04:25:40.770 1.500E-01 0.500 F -0.330 -0.208 -01° 38' 07.60" 1.000E-01 0.500 F 0.144 0.293 19.1 R 0.70 0.32 o 691 0.74 Yes Yes
Apophis O C 2021-03-06.14324 1.000E-05 09:26:15.630 1.500E-01 0.750 F -0.009 -0.160 -07° 32' 53.80" 1.000E-01 0.750 F 0.039 -0.013 15.5 V 0.70 -0.06 o 691 0.21 Yes Yes
Apophis O C 2021-03-06.17310 1.000E-05 09:26:07.030 1.500E-01 0.750 F -0.009 -0.226 -07° 31' 29.90" 1.000E-01 0.750 F 0.039 0.041 15.6 V 0.70 0.04 o 691 0.31 Yes Yes
Apophis O C 2021-03-06.20151 1.000E-05 09:25:58.790 1.500E-01 0.750 F -0.009 -0.207 -07° 30' 09.80" 1.000E-01 0.750 F 0.039 0.073 15.7 V 0.70 0.13 o 691 0.29 Yes Yes
Apophis O C 2021-03-06.20300 1.000E-05 09:25:58.360 1.500E-01 0.750 F -0.009 -0.156 -07° 30' 05.70" 1.000E-01 0.750 F 0.039 -0.034 15.7 V 0.70 0.13 o 691 0.21 Yes Yes
Apophis O C 2021-03-06.22390 1.000E-05 09:25:52.280 1.500E-01 0.750 F -0.009 -0.022 -07° 29' 06.60" 1.000E-01 0.750 F 0.039 -0.043 15.7 V 0.70 0.13 o 691 0.06 Yes Yes
Apophis O C 2021-03-06.24332 1.000E-05 09:25:46.610 1.500E-01 0.750 F -0.009 -0.075 -07° 28' 11.50" 1.000E-01 0.750 F 0.039 -0.017 15.8 V 0.70 0.23 o 691 0.10 Yes Yes
Apophis O C 2021-03-06.32243 1.000E-05 09:25:23.610 1.500E-01 0.750 F -0.009 -0.135 -07° 24' 26.00" 1.000E-01 0.750 F 0.039 -0.358 o 691 0.51 Yes No
Apophis O C 2021-03-06.34971 1.000E-05 09:25:15.780 1.500E-01 0.750 F -0.009 -0.114 -07° 23' 07.30" 1.000E-01 0.750 F 0.039 -0.054 o 691 0.17 Yes No
Apophis O C 2021-03-06.37842 1.000E-05 09:25:07.620 1.500E-01 0.750 F -0.009 -0.237 -07° 21' 44.50" 1.000E-01 0.750 F 0.039 -0.007 o 691 0.32 Yes No
2021ER1 O C K 2021-03-06.43471 1.000E-05 11:16:29.980 1.500E-01 0.500 F 0.241 0.140 +07° 37' 49.00" 1.000E-01 0.500 F 0.228 -0.463 21.5 R 0.70 0.21 o 691 0.99 Yes Yes
2021ER1 O C K 2021-03-06.44367 1.000E-05 11:16:29.330 1.500E-01 0.500 F 0.241 -0.573 +07° 37' 28.60" 1.000E-01 0.500 F 0.228 0.227 21.9 R 0.70 0.61 o 691 1.29 Yes Yes
2014VL6 O C K 2021-03-06.45387 1.000E-05 13:26:46.200 1.500E-01 0.500 F 0.226 -0.256 +02° 22' 18.30" 1.000E-01 0.500 F 0.171 -0.185 22.2 R 0.70 0.52 o 691 0.63 Yes Yes
2014VL6 O C K 2021-03-06.47184 1.000E-05 13:26:45.450 1.500E-01 0.500 F 0.226 0.410 +02° 22' 25.30" 1.000E-01 0.500 F 0.171 -0.008 22.0 R 0.70 0.32 o 691 0.82 Yes Yes
2014VL6 O C K 2021-03-06.48981 1.000E-05 13:26:44.630 1.500E-01 0.500 F 0.226 -0.011 +02° 22' 32.10" 1.000E-01 0.500 F 0.171 -0.029 22.0 R 0.70 0.32 o 691 0.06 Yes Yes
2021EC1 O C K 2021-03-06.50764 1.000E-05 13:14:34.580 1.500E-01 0.500 F 0.238 0.316 +13° 16' 43.90" 1.000E-01 0.500 F 0.186 0.256 19.7 R 0.70 -0.23 o 691 0.84 Yes Yes
2021EC1 O C K 2021-03-06.51713 1.000E-05 13:14:21.160 1.500E-01 0.500 F 0.238 0.954 +13° 15' 13.90" 1.000E-01 0.500 F 0.186 0.120 19.4 R 0.70 -0.53 o 691 2.01 Yes Yes
2021EC1 O C K 2021-03-06.52629 1.000E-05 13:14:08.190 1.500E-01 0.500 F 0.238 0.731 +13° 13' 47.00" 1.000E-01 0.500 F 0.186 0.126 20.0 R 0.70 0.07 o 691 1.55 Yes Yes
2020QZ3 O C K 2021-03-07.13261 1.000E-05 06:54:40.860 1.500E-01 0.500 F -0.164 0.197 +03° 05' 28.20" 1.000E-01 0.500 F 0.072 0.123 o 691 0.47 Yes No
2020QZ3 O C K 2021-03-07.13852 1.000E-05 06:54:42.980 1.500E-01 0.500 F -0.164 0.144 +03° 05' 38.40" 1.000E-01 0.500 F 0.072 0.036 20.3 R 0.70 -0.18 o 691 0.30 Yes Yes
2020QZ3 O C K 2021-03-07.14442 1.000E-05 06:54:45.070 1.500E-01 0.500 F -0.164 -0.300 +03° 05' 48.30" 1.000E-01 0.500 F 0.072 -0.328 o 691 0.90 Yes No
2016CO247 O C K 2021-03-07.15159 1.000E-05 07:26:01.960 1.500E-01 0.500 F -0.186 0.405 -01° 40' 00.60" 1.000E-01 0.500 F 0.067 -0.340 22.0 R 0.70 0.36 o 691 1.06 Yes Yes
2016CO247 O C K 2021-03-07.16334 1.000E-05 07:26:02.480 1.500E-01 0.500 F -0.186 0.001 -01° 39' 57.50" 1.000E-01 0.500 F 0.067 0.210 22.5 R 0.70 0.86 o 691 0.42 Yes Yes
2016CO247 O C K 2021-03-07.17508 1.000E-05 07:26:03.030 1.500E-01 0.500 F -0.186 0.051 -01° 39' 55.50" 1.000E-01 0.500 F 0.067 -0.338 21.6 R 0.70 -0.04 o 691 0.68 Yes Yes
2021ES2 O C K 2021-03-07.36989 1.000E-05 10:27:04.550 1.500E-01 0.500 F 0.295 -0.114 +00° 05' 52.10" 1.000E-01 0.500 F 0.159 0.276 21.3 R 0.70 0.33 o 691 0.63 Yes Yes
2021ES2 O C K 2021-03-07.38419 1.000E-05 10:27:08.260 1.500E-01 0.500 F 0.295 -0.357 +00° 04' 23.70" 1.000E-01 0.500 F 0.159 0.475 21.9 R 0.70 0.93 o 691 1.26 Yes Yes
2021ES2 O C K 2021-03-07.39850 1.000E-05 10:27:12.020 1.500E-01 0.500 F 0.295 -0.178 +00° 02' 56.10" 1.000E-01 0.500 F 0.159 1.476 22.0 R 0.70 1.03 o 691 3.11 Yes Yes
2021EO2 O C K 2021-03-07.41431 1.000E-05 10:54:55.570 1.500E-01 0.500 F 0.121 2.884 +04° 15' 39.50" 1.000E-01 0.500 F 0.094 -0.858 o 691 5.81 No No
2021EO2 O C K 2021-03-07.42727 1.000E-05 10:55:00.690 1.500E-01 0.500 F 0.231 2.101 +04° 14' 55.00" 1.000E-01 0.500 F 0.061 0.441 o 691 4.18 No No
2021EO2 O C K 2021-03-07.44022 1.000E-05 10:55:06.060 1.500E-01 0.500 F 0.231 4.202 +04° 14' 06.60" 1.000E-01 0.500 F 0.061 -2.063 21.2 R 0.70 0.30 o 691 9.04 No Yes
2014VL6 O C K 2021-03-07.46906 1.000E-05 13:26:04.470 1.500E-01 0.612 F 0.226 -0.557 +02° 28' 53.30" 1.000E-01 0.612 F 0.172 0.126 21.6 R 0.70 -0.02 o 691 0.93 Yes Yes
2014VL6 O C 2021-03-07.46906 1.000E-05 13:26:04.480 1.500E-01 0.612 F 0.226 -0.407 +02° 28' 52.40" 1.000E-01 0.612 F 0.172 -0.774 21.3 V 0.70 -0.72 o 691 1.43 Yes Yes
2014VL6 O C K 2021-03-07.47826 1.000E-05 13:26:04.070 1.500E-01 0.612 F 0.226 0.114 +02° 28' 56.80" 1.000E-01 0.612 F 0.172 -0.017 21.2 R 0.70 -0.42 o 691 0.19 Yes Yes
2014VL6 O C 2021-03-07.48439 1.000E-05 13:26:03.790 1.500E-01 0.612 F 0.226 0.351 +02° 28' 59.10" 1.000E-01 0.612 F 0.172 -0.143 21.5 V 0.70 -0.52 o 691 0.62 Yes Yes
2014VL6 O C K 2021-03-07.48746 1.000E-05 13:26:03.630 1.500E-01 0.612 F 0.226 0.172 +02° 29' 00.60" 1.000E-01 0.612 F 0.172 0.141 21.9 R 0.70 0.28 o 691 0.36 Yes Yes
2014VL6 O C 2021-03-07.49360 1.000E-05 13:26:03.280 1.500E-01 0.612 F 0.226 -0.642 +02° 29' 03.40" 1.000E-01 0.612 F 0.172 0.511 21.5 V 0.70 -0.52 o 691 1.34 Yes Yes
2021AG8 O C K 2021-03-07.50245 1.000E-05 15:41:21.460 1.500E-01 0.500 F -0.048 0.264 -16° 57' 45.70" 1.000E-01 0.500 F 0.210 -0.299 21.5 R 0.70 0.35 o 691 0.81 Yes Yes
2021AG8 O C K 2021-03-07.51290 1.000E-05 15:41:22.730 1.500E-01 0.500 F -0.048 -0.023 -16° 58' 08.80" 1.000E-01 0.500 F 0.210 -0.316 21.5 R 0.70 0.35 o 691 0.65 Yes Yes
2021AG8 O C K 2021-03-07.52344 1.000E-05 15:41:24.010 1.500E-01 0.500 F -0.048 -0.325 -16° 58' 31.20" 1.000E-01 0.500 F 0.210 0.540 20.6 R 0.70 -0.55 o 691 1.30 Yes Yes
2018NC O C K 2021-03-10.11316 1.000E-05 04:33:14.470 1.500E-01 0.500 F -0.168 0.632 +22° 40' 03.20" 1.000E-01 0.500 F 0.173 -0.330 22.0 R 0.70 0.25 o 691 1.44 Yes Yes
2018NC O C K 2021-03-10.12364 1.000E-05 04:33:15.020 1.500E-01 0.500 F -0.168 -0.701 +22° 40' 11.10" 1.000E-01 0.500 F 0.173 -0.275 22.2 R 0.70 0.45 o 691 1.51 Yes Yes
2018NC O C K 2021-03-10.13413 1.000E-05 04:33:15.660 1.500E-01 0.500 F -0.168 -0.825 +22° 40' 20.30" 1.000E-01 0.500 F 0.173 1.086 o 691 2.74 Yes No
2021DC2 O C K 2021-03-10.14753 1.000E-05 05:33:30.290 1.500E-01 0.500 F -0.099 0.126 +23° 48' 47.10" 1.000E-01 0.500 F 0.216 0.221 21.7 R 0.70 0.18 o 691 0.57 Yes Yes
2021DC2 O C K 2021-03-10.16626 1.000E-05 05:33:24.180 1.500E-01 0.500 F -0.099 0.209 +23° 48' 59.50" 1.000E-01 0.500 F 0.216 -0.832 o 691 1.98 Yes No
2021DC2 O C K 2021-03-10.18497 1.000E-05 05:33:18.010 1.500E-01 0.500 F -0.099 -0.787 +23° 49' 14.00" 1.000E-01 0.500 F 0.216 0.350 o 691 2.03 Yes No
2021DJ2 O C K 2021-03-10.37428 1.000E-05 11:10:36.370 1.500E-01 0.500 F 0.149 0.281 -15° 11' 41.80" 1.000E-01 0.500 F 0.046 0.178 20.7 R 0.70 0.38 o 691 0.72 Yes Yes
2021CY6 O C K 2021-03-10.38042 1.000E-05 11:07:20.190 1.500E-01 0.500 F 0.186 0.163 -13° 45' 11.50" 1.000E-01 0.500 F 0.003 0.014 21.1 R 0.70 -0.06 o 691 0.34 Yes Yes
2021DJ2 O C K 2021-03-10.39032 1.000E-05 11:10:31.870 1.500E-01 0.500 F 0.149 0.581 -15° 13' 20.00" 1.000E-01 0.500 F 0.046 0.001 21.0 R 0.70 0.68 o 691 1.23 Yes Yes
2021CY6 O C K 2021-03-10.39647 1.000E-05 11:07:19.160 1.500E-01 0.500 F 0.186 0.179 -13° 44' 49.20" 1.000E-01 0.500 F 0.003 0.351 22.1 R 0.70 0.94 o 691 0.80 Yes Yes
2021DJ2 O C K 2021-03-10.40636 1.000E-05 11:10:27.360 1.500E-01 0.500 F 0.149 0.423 -15° 14' 57.70" 1.000E-01 0.500 F 0.046 0.138 21.0 R 0.70 0.67 o 691 0.95 Yes Yes
2021CY6 O C K 2021-03-10.41250 1.000E-05 11:07:18.110 1.500E-01 0.500 F 0.186 -0.167 -13° 44' 27.70" 1.000E-01 0.500 F 0.003 -0.106 21.6 R 0.70 0.44 o 691 0.40 Yes Yes
2017LU O C K 2021-03-10.42412 1.000E-05 12:27:48.600 1.500E-01 0.500 F 0.403 0.797 -17° 26' 41.20" 1.000E-01 0.500 F 0.025 0.555 o 691 1.95 Yes No
2017LU O C K 2021-03-10.44403 1.000E-05 12:27:47.280 1.500E-01 0.500 F 0.403 -0.449 -17° 26' 42.00" 1.000E-01 0.500 F 0.025 0.194 o 691 0.99 Yes No
2017LU O C K 2021-03-10.46395 1.000E-05 12:27:46.110 1.500E-01 0.500 F 0.403 0.433 -17° 26' 42.10" 1.000E-01 0.500 F 0.025 0.508 o 691 1.34 Yes No
2019FJ O C H 2021-03-15.11201 1.000E-05 05:44:45.110 1.500E-01 0.500 F -0.028 -0.132 +01° 34' 08.20" 1.000E-01 0.500 F 0.123 -0.155 20.3 R 0.70 0.23 o 691 0.41 Yes Yes
2019FJ O C H 2021-03-15.11971 1.000E-05 05:44:45.190 1.500E-01 0.500 F -0.028 -0.232 +01° 34' 36.10" 1.000E-01 0.500 F 0.123 -0.355 20.6 R 0.70 0.53 o 691 0.86 Yes Yes
2021AB8 O C H 2021-03-15.13612 1.000E-05 06:43:24.000 1.500E-01 0.500 F -0.067 -0.304 +06° 15' 44.20" 1.000E-01 0.500 F 0.085 -0.072 o 691 0.64 Yes No
2021AB8 O C H 2021-03-15.14268 1.000E-05 06:43:24.390 1.500E-01 0.500 F -0.067 0.266 +06° 15' 37.50" 1.000E-01 0.500 F 0.085 0.159 o 691 0.63 Yes No
2021AB8 O C H 2021-03-15.14925 1.000E-05 06:43:24.720 1.500E-01 0.500 F -0.067 -0.074 +06° 15' 30.40" 1.000E-01 0.500 F 0.085 0.002 o 691 0.15 Yes No
2021CX5 O C H 2021-03-15.15650 1.000E-05 09:05:41.030 1.500E-01 0.500 F 0.072 0.721 -13° 17' 28.60" 1.000E-01 0.500 F -0.116 0.019 18.7 R 0.70 -0.08 o 691 1.45 Yes Yes
1999VX15 O C H 2021-03-15.16023 1.000E-05 09:24:52.280 1.500E-01 0.500 F 0.260 -0.084 -24° 08' 19.30" 1.000E-01 0.500 F 0.039 -0.096 18.0 R 0.70 -0.03 o 691 0.27 Yes Yes
2021CX5 O C H 2021-03-15.16154 1.000E-05 09:05:41.650 1.500E-01 0.500 F 0.072 0.353 -13° 18' 00.20" 1.000E-01 0.500 F -0.116 0.053 18.9 R 0.70 0.12 o 691 0.72 Yes Yes
1999VX15 O C H 2021-03-15.16527 1.000E-05 09:24:53.150 1.500E-01 0.500 F 0.260 0.266 -24° 08' 10.60" 1.000E-01 0.500 F 0.039 -0.490 18.0 R 0.70 -0.03 o 691 1.13 Yes Yes
2021CX5 O C H 2021-03-15.16657 1.000E-05 09:05:42.330 1.500E-01 0.500 F 0.072 0.922 -13° 18' 31.70" 1.000E-01 0.500 F -0.116 0.106 19.1 R 0.70 0.32 o 691 1.87 Yes Yes
1999VX15 O C H 2021-03-15.17030 1.000E-05 09:24:53.970 1.500E-01 0.500 F 0.260 -0.037 -24° 08' 01.00" 1.000E-01 0.500 F 0.039 0.026 18.2 R 0.70 0.17 o 691 0.09 Yes Yes
2014CS O C H 2021-03-15.19711 1.000E-05 09:37:10.390 1.500E-01 0.500 F 0.128 0.007 +01° 08' 08.20" 1.000E-01 0.500 F 0.244 -0.088 20.0 R 0.70 0.28 o 691 0.18 Yes Yes
2014CS O C H 2021-03-15.20489 1.000E-05 09:37:09.950 1.500E-01 0.500 F 0.128 0.004 +01° 08' 05.30" 1.000E-01 0.500 F 0.244 0.262 19.9 R 0.70 0.18 o 691 0.53 Yes Yes
2014CS O C H 2021-03-15.21267 1.000E-05 09:37:09.520 1.500E-01 0.500 F 0.128 0.154 +01° 08' 01.80" 1.000E-01 0.500 F 0.244 0.012 20.1 R 0.70 0.38 o 691 0.31 Yes Yes
2010JM151 O C K 2021-03-15.21970 1.000E-05 10:24:26.500 1.500E-01 0.500 F 0.138 -0.403 -20° 43' 39.60" 1.000E-01 0.500 F -0.094 0.150 21.1 R 0.70 0.39 o 691 0.92 Yes Yes
2011SO32 O C H 2021-03-15.22595 1.000E-05 10:31:12.030 1.500E-01 0.500 F 0.031 -0.135 -09° 44' 16.70" 1.000E-01 0.500 F 0.122 0.391 20.1 R 0.70 0.20 o 691 0.83 Yes Yes
2011SO32 O C H 2021-03-15.23393 1.000E-05 10:31:12.100 1.500E-01 0.500 F 0.031 -0.054 -09° 43' 56.80" 1.000E-01 0.500 F 0.122 -0.137 20.2 R 0.70 0.30 o 691 0.30 Yes Yes
2010JM151 O C K 2021-03-15.23568 1.000E-05 10:24:24.160 1.500E-01 0.500 F 0.131 0.089 -20° 43' 43.10" 1.000E-01 0.500 F -0.047 -0.558 21.6 R 0.70 0.89 o 691 1.18 Yes Yes
2011SO32 O C H 2021-03-15.24193 1.000E-05 10:31:12.160 1.500E-01 0.500 F 0.031 -0.113 -09° 43' 36.00" 1.000E-01 0.500 F 0.122 0.181 20.2 R 0.70 0.30 o 691 0.42 Yes Yes
2021EC1 O C K 2021-03-15.24330 1.000E-05 10:48:58.070 1.500E-01 0.500 F 0.252 -0.426 -05° 29' 20.00" 1.000E-01 0.500 F 0.125 0.057 20.4 R 0.70 0.19 o 691 0.87 Yes Yes
2021DK O C H 2021-03-15.24683 1.000E-05 10:59:33.460 1.500E-01 0.500 F 0.207 -0.033 +01° 20' 00.00" 1.000E-01 0.500 F 0.186 0.614 20.5 R 0.70 0.56 o 691 1.24 Yes Yes
2021CO5 O C H 2021-03-15.24826 1.000E-05 11:27:16.540 1.500E-01 0.500 F 0.236 0.732 -12° 22' 33.70" 1.000E-01 0.500 F 0.056 0.680 o 691 2.08 Yes No
2021EC1 O C K 2021-03-15.24944 1.000E-05 10:48:53.770 1.500E-01 0.500 F 0.252 0.264 -05° 29' 50.90" 1.000E-01 0.500 F 0.125 -0.314 20.3 R 0.70 0.09 o 691 0.83 Yes Yes
2021DK O C H 2021-03-15.25297 1.000E-05 10:59:32.760 1.500E-01 0.500 F 0.207 -0.150 +01° 20' 12.50" 1.000E-01 0.500 F 0.186 0.394 20.4 R 0.70 0.46 o 691 0.85 Yes Yes

[1-200] [201-400] [401-600] [601-800] [801-1000] [1001-1200] [1201-1400] [1401-1600] [1601-1800] [1801-2000] [2001-2200] [2201-2400] [2401-2600] [2601-2800] [2801-3000] [3001-3200] [3201-3400] [3401-3600] [3601-3800] [3801-4000] [4001-4200] [4201-4400] [4401-4600] [4601-4800] [4801-5000] [5001-5200] [5201-5400] [5401-5600] [5601-5800] [5801-6000] [6001-6200] [6201-6400] [6401-6600] [6601-6800] [6801-7000] [7001-7200] [7201-7400] [7401-7600] [7601-7800] [7801-8000] [8001-8200] [8201-8400] [8401-8600] [8601-8800] [8801-9000] [9001-9200] [9201-9400] [9401-9600] [9601-9800] [9801-10000] [10001-10200] [10201-10400] [10401-10600] [10601-10800] [10801-11000] [11001-11200] [11201-11400] [11401-11600] [11601-11800] [11801-12000] [12001-12200] [12201-12400] [12401-12600] [12601-12800] [12801-13000] [13001-13200] [13201-13400] [13401-13600] [13601-13800] [13801-14000] [14001-14200] [14201-14400] [14401-14600] [14601-14800] [14801-15000] [15001-15200] [15201-15400] [15401-15600] [15601-15800] [15801-16000] [16001-16200] [16201-16400] [16401-16600] [16601-16800] [16801-17000] [17001-17200] [17201-17400] [17401-17600] [17601-17800] [17801-18000] [18001-18200] [18201-18400] [18401-18600] [18601-18800] [18801-19000] [19001-19200] [19201-19400] [19401-19600] [19601-19800] [19801-20000] [20001-20200] [20201-20400] [20401-20600] [20601-20800] [20801-21000] [21001-21200] [21201-21400] [21401-21600] [21601-21800] [21801-22000] [22001-22200] [22201-22400] [22401-22600] [22601-22800] [22801-23000] [23001-23200] [23201-23400] [23401-23600] [23601-23800] [23801-24000] [24001-24200] [24201-24400] [24401-24600] [24601-24800] [24801-25000] [25001-25200] [25201-25400] [25401-25600] [25601-25800] [25801-26000] [26001-26200] [26201-26400] [26401-26600] [26601-26800] [26801-27000] [27001-27200] [27201-27400] [27401-27600] [27601-27800] [27801-28000] [28001-28200] [28201-28400] [28401-28600] [28601-28800] [28801-29000] [29001-29200] [29201-29400] [29401-29600] [29601-29800] [29801-30000] [30001-30200] [30201-30400] [30401-30600] [30601-30800] [30801-31000] [31001-31200] [31201-31400] [31401-31600] [31601-31800] [31801-32000] [32001-32200] [32201-32400] [32401-32600] [32601-32800] [32801-33000] [33001-33200] [33201-33400] [33401-33600] [33601-33800] [33801-34000] [34001-34200] [34201-34400] [34401-34600] [34601-34800] [34801-35000] [35001-35200] [35201-35400] [35401-35600] [35601-35800] [35801-36000] [36001-36200] [36201-36400] [36401-36600] [36601-36800] [36801-37000] [37001-37200] [37201-37400] [37401-37600] [37601-37800] [37801-38000] [38001-38200] [38201-38400] [38401-38600] [38601-38800] [38801-39000] [39001-39200] [39201-39400] [39401-39600] [39601-39800] [39801-40000] [40001-40200] [40201-40400] [40401-40600] [40601-40800] [40801-41000] [41001-41200] [41201-41400] [41401-41600] [41601-41800] [41801-42000] [42001-42200] [42201-42400] [42401-42600] [42601-42800] [42801-43000] [43001-43200] [43201-43400] [43401-43600] [43601-43800] [43801-44000] [44001-44200] [44201-44400] [44401-44600] [44601-44800] [44801-45000] [45001-45200] [45201-45400] [45401-45600] [45601-45800] [45801-46000] [46001-46200] [46201-46400] [46401-46600] [46601-46800] [46801-47000] [47001-47200] [47201-47400] [47401-47600] [47601-47800] [47801-48000] [48001-48200] [48201-48400] [48401-48600] [48601-48800] [48801-49000] [49001-49200] [49201-49400] [49401-49600] [49601-49800] [49801-50000] [50001-50200] [50201-50388]